Time;durP1;ratioP1;P1;durP2;ratioP2;P2;SDS_P1;SDS_P2;PMS_P1;PMS_P2;Temp;Humidity;BMP_temperature;BMP_pressure;BME280_temperature;BME280_humidity;BME280_pressure;Samples;Min_cycle;Max_cycle;Signal;HPM_P1;HPM_P2
2022/10/26 00:01:09;;;;;;;8.70;3.77;;;9.60;99.90;;;;;;5032495;28;20037;-86
2022/10/26 00:03:35;;;;;;;6.90;3.70;;;9.60;99.90;;;;;;5032544;28;20033;-86
2022/10/26 00:06:13;;;;;;;9.60;4.00;;;9.60;99.90;;;;;;5032229;28;20029;-86
2022/10/26 00:08:39;;;;;;;11.37;3.70;;;9.70;99.90;;;;;;5032451;28;20056;-86
2022/10/26 00:11:06;;;;;;;7.77;3.50;;;9.70;99.90;;;;;;5032462;28;20029;-86
2022/10/26 00:13:33;;;;;;;9.10;4.17;;;9.70;99.90;;;;;;5030857;28;20546;-86
2022/10/26 00:15:58;;;;;;;11.83;4.40;;;9.70;99.90;;;;;;5032602;28;20063;-86
2022/10/26 00:18:24;;;;;;;6.87;4.17;;;9.70;99.90;;;;;;5032266;28;20180;-86
2022/10/26 00:20:50;;;;;;;9.47;3.77;;;9.70;99.90;;;;;;5032274;28;20029;-86
2022/10/26 00:23:16;;;;;;;8.80;4.43;;;9.70;99.90;;;;;;5032137;28;20171;-86
2022/10/26 00:25:42;;;;;;;7.27;3.90;;;9.80;99.90;;;;;;5032510;28;20518;-86
2022/10/26 00:28:07;;;;;;;12.80;4.80;;;9.80;99.90;;;;;;5031110;28;20495;-86
2022/10/26 00:30:37;;;;;;;7.73;4.03;;;9.80;99.90;;;;;;5030636;28;20068;-86
2022/10/26 00:33:03;;;;;;;9.47;5.03;;;9.80;99.90;;;;;;5023468;28;20037;-86
2022/10/26 00:35:28;;;;;;;10.27;4.67;;;9.90;99.90;;;;;;5032096;28;20045;-86
2022/10/26 00:37:55;;;;;;;10.13;4.40;;;9.90;99.90;;;;;;5032209;28;20025;-85
2022/10/26 00:40:21;;;;;;;16.50;12.80;;;9.90;99.90;;;;;;5032055;28;20045;-86
2022/10/26 00:42:46;;;;;;;11.47;4.80;;;9.90;99.90;;;;;;5031957;28;20481;-86
2022/10/26 00:45:20;;;;;;;7.77;5.13;;;10.00;99.90;;;;;;5032139;28;20033;-86
2022/10/26 00:47:52;;;;;;;9.93;4.50;;;10.00;99.90;;;;;;5032246;28;20030;-86
2022/10/26 00:50:23;;;;;;;11.03;5.30;;;10.00;99.90;;;;;;5032346;28;20039;-86
2022/10/26 00:52:51;;;;;;;12.70;6.33;;;10.00;99.90;;;;;;5031929;28;20029;-86
2022/10/26 00:55:20;;;;;;;8.57;4.90;;;10.00;99.90;;;;;;5031388;28;20029;-86
2022/10/26 00:57:47;;;;;;;7.83;4.40;;;10.10;99.90;;;;;;5031533;28;20029;-86
2022/10/26 01:00:13;;;;;;;11.87;4.90;;;10.00;99.90;;;;;;5032192;28;20032;-86
2022/10/26 01:02:39;;;;;;;6.00;4.07;;;10.10;99.90;;;;;;5031745;28;20017;-86
2022/10/26 01:05:05;;;;;;;9.90;5.17;;;10.10;99.90;;;;;;5031762;28;20033;-86
2022/10/26 01:07:32;;;;;;;8.57;4.97;;;10.10;99.90;;;;;;5031670;28;20024;-86
2022/10/26 01:09:59;;;;;;;9.73;5.73;;;10.00;99.90;;;;;;5032059;28;20502;-86
2022/10/26 01:12:24;;;;;;;9.73;4.60;;;10.10;99.90;;;;;;5031909;28;20032;-86
2022/10/26 01:14:50;;;;;;;8.20;4.70;;;10.10;99.90;;;;;;5031686;28;20099;-86
2022/10/26 01:17:42;;;;;;;13.80;4.80;;;10.10;99.90;;;;;;5031838;28;20062;-86
2022/10/26 01:20:55;;;;;;;7.27;5.00;;;10.10;99.90;;;;;;5031274;28;20028;-86
2022/10/26 01:23:20;;;;;;;10.90;4.57;;;10.10;99.90;;;;;;5031328;28;20125;-86
2022/10/26 01:26:04;;;;;;;10.50;4.82;;;10.10;99.90;;;;;;5030885;28;20040;-86
2022/10/26 01:28:52;;;;;;;12.20;4.53;;;10.10;99.90;;;;;;5031230;28;20032;-86
2022/10/26 01:31:26;;;;;;;6.03;3.80;;;10.10;99.90;;;;;;5023508;28;20498;-86
2022/10/26 01:34:01;;;;;;;6.63;3.70;;;10.10;99.90;;;;;;5015766;28;20033;-86
2022/10/26 01:36:27;;;;;;;;;;;10.10;99.90;;;;;;5032020;28;20546;-86
2022/10/26 01:39:06;;;;;;;8.37;4.03;;;10.20;99.90;;;;;;5030839;28;19909;-86
2022/10/26 01:41:41;;;;;;;7.53;5.18;;;10.20;99.90;;;;;;5030418;28;20117;-86
2022/10/26 01:44:09;;;;;;;;;;;10.20;99.90;;;;;;5031131;28;20047;-86
2022/10/26 01:46:42;;;;;;;8.40;5.00;;;10.20;99.90;;;;;;5028968;28;19917;-86
2022/10/26 01:49:11;;;;;;;8.97;5.07;;;10.20;99.90;;;;;;5030924;28;20030;-86
2022/10/26 01:51:39;;;;;;;8.53;4.70;;;10.20;99.90;;;;;;5031284;28;20036;-86
2022/10/26 01:54:05;;;;;;;7.43;4.07;;;10.20;99.90;;;;;;5030914;28;20048;-86
2022/10/26 01:56:35;;;;;;;8.18;4.47;;;10.20;99.90;;;;;;5030981;28;20025;-86
2022/10/26 01:59:25;;;;;;;9.47;4.40;;;10.20;99.90;;;;;;5031024;28;20404;-86
2022/10/26 02:02:37;;;;;;;7.30;4.50;;;10.30;99.90;;;;;;5030862;28;20030;-86
2022/10/26 02:05:18;;;;;;;13.27;5.50;;;10.20;99.90;;;;;;5030331;28;20124;-86
2022/10/26 02:08:12;;;;;;;7.87;4.70;;;10.20;99.90;;;;;;5031160;28;20373;-86
2022/10/26 02:10:56;;;;;;;6.73;4.40;;;10.20;99.90;;;;;;5034866;28;20056;-86
2022/10/26 02:13:45;;;;;;;7.97;4.20;;;10.20;99.90;;;;;;5034794;28;20079;-86
2022/10/26 02:16:35;;;;;;;11.52;4.47;;;10.20;99.90;;;;;;5015289;28;20387;-86
2022/10/26 02:19:16;;;;;;;13.13;4.00;;;10.20;99.90;;;;;;5014915;28;20033;-86
2022/10/26 02:21:47;;;;;;;10.03;4.10;;;10.20;99.90;;;;;;5015073;28;20037;-86
2022/10/26 02:24:15;;;;;;;8.70;4.40;;;10.20;99.90;;;;;;5018848;28;20104;-86
2022/10/26 02:26:46;;;;;;;7.47;4.03;;;10.20;99.90;;;;;;5034665;28;20029;-86
2022/10/26 02:29:16;;;;;;;9.50;4.37;;;10.20;99.90;;;;;;5034714;28;20033;-86
2022/10/26 02:31:44;;;;;;;11.00;3.65;;;10.20;99.90;;;;;;5019649;28;20034;-86
2022/10/26 02:34:13;;;;;;;6.90;4.00;;;10.20;99.90;;;;;;5034095;28;20074;-86
2022/10/26 02:36:44;;;;;;;6.57;3.83;;;10.20;99.90;;;;;;5034576;28;20101;-86
2022/10/26 02:39:11;;;;;;;8.83;3.50;;;10.20;99.90;;;;;;5034445;28;20484;-86
2022/10/26 02:41:39;;;;;;;5.63;3.20;;;10.20;99.90;;;;;;5034473;28;20113;-86
2022/10/26 02:44:11;;;;;;;20.90;4.43;;;10.20;99.90;;;;;;5034353;28;20386;-86
2022/10/26 02:46:38;;;;;;;9.35;3.15;;;10.20;99.90;;;;;;5034446;28;20037;-86
2022/10/26 02:49:04;;;;;;;4.60;2.92;;;10.20;99.90;;;;;;5033675;28;20025;-86
2022/10/26 02:51:34;;;;;;;7.10;3.60;;;10.20;99.90;;;;;;5034148;28;20033;-86
2022/10/26 02:54:09;;;;;;;8.38;3.65;;;10.20;99.90;;;;;;5033972;28;20463;-86
2022/10/26 02:56:42;;;;;;;6.00;3.00;;;10.20;99.90;;;;;;5034150;28;20028;-86
2022/10/26 02:59:10;;;;;;;7.90;3.10;;;10.20;99.90;;;;;;5033927;28;20101;-86
2022/10/26 03:01:36;;;;;;;5.68;3.38;;;10.20;99.90;;;;;;5034233;28;20037;-86
2022/10/26 03:04:02;;;;;;;6.57;3.17;;;10.20;99.90;;;;;;5033702;28;20033;-86
2022/10/26 03:06:27;;;;;;;8.63;3.30;;;10.30;99.90;;;;;;5034306;28;20427;-85
2022/10/26 03:08:53;;;;;;;7.35;3.00;;;10.30;99.90;;;;;;5033558;28;20036;-86
2022/10/26 03:11:18;;;;;;;7.28;3.22;;;10.30;99.90;;;;;;5033758;28;20478;-86
2022/10/26 03:13:44;;;;;;;7.75;3.20;;;10.30;99.90;;;;;;5033401;28;20473;-86
2022/10/26 03:16:10;;;;;;;6.28;2.92;;;10.30;99.90;;;;;;5033520;28;20021;-86
2022/10/26 03:18:36;;;;;;;10.53;3.50;;;10.40;99.90;;;;;;5033031;28;20418;-86
2022/10/26 03:21:02;;;;;;;7.87;3.77;;;10.40;99.90;;;;;;5032551;28;20033;-86
2022/10/26 03:23:27;;;;;;;5.67;2.97;;;10.40;99.90;;;;;;5033343;28;20034;-86
2022/10/26 03:25:57;;;;;;;12.53;3.37;;;10.40;99.90;;;;;;5033366;28;20040;-86
2022/10/26 03:28:23;;;;;;;7.10;3.17;;;10.40;99.90;;;;;;5033350;28;20402;-86
2022/10/26 03:30:48;;;;;;;4.60;2.93;;;10.40;99.90;;;;;;5025377;28;20040;-86
2022/10/26 03:33:14;;;;;;;5.50;3.20;;;10.40;99.90;;;;;;5025760;28;20108;-86
2022/10/26 03:35:40;;;;;;;6.30;3.20;;;10.40;99.90;;;;;;5033378;28;20478;-86
2022/10/26 03:38:05;;;;;;;7.70;3.22;;;10.40;99.90;;;;;;5031718;28;20332;-86
2022/10/26 03:40:31;;;;;;;12.35;2.97;;;10.40;99.90;;;;;;5032862;28;20479;-86
2022/10/26 03:42:56;;;;;;;5.47;3.05;;;10.40;99.90;;;;;;5032833;28;20021;-86
2022/10/26 03:45:22;;;;;;;9.55;3.20;;;10.50;99.90;;;;;;5032727;28;20033;-86
2022/10/26 03:47:48;;;;;;;8.27;3.15;;;10.50;99.90;;;;;;5032540;28;20393;-86
2022/10/26 03:50:17;;;;;;;5.50;3.00;;;10.50;99.90;;;;;;5032313;28;20045;-86
2022/10/26 03:52:43;;;;;;;5.95;2.55;;;10.50;99.90;;;;;;5032304;28;20033;-86
2022/10/26 03:55:09;;;;;;;5.03;3.10;;;10.50;99.90;;;;;;5032525;28;20025;-85
2022/10/26 03:57:43;;;;;;;5.45;3.08;;;10.50;99.90;;;;;;5032405;28;20497;-85
2022/10/26 04:00:10;;;;;;;6.78;3.15;;;10.50;99.90;;;;;;5032581;28;20021;-86
2022/10/26 04:02:36;;;;;;;7.20;2.95;;;10.50;99.90;;;;;;5032462;28;20025;-86
2022/10/26 04:05:01;;;;;;;7.10;3.03;;;10.50;99.90;;;;;;5032512;28;20041;-86
2022/10/26 04:07:27;;;;;;;5.05;2.78;;;10.50;99.90;;;;;;5032204;28;20041;-86
2022/10/26 04:09:52;;;;;;;7.78;3.47;;;10.60;99.90;;;;;;5032043;28;20033;-86
2022/10/26 04:12:18;;;;;;;7.72;3.25;;;10.60;99.90;;;;;;5031834;28;20029;-86
2022/10/26 04:14:44;;;;;;;6.72;3.35;;;10.60;99.90;;;;;;5032142;28;20022;-86
2022/10/26 04:17:09;;;;;;;7.18;3.05;;;10.60;99.90;;;;;;5032191;28;20067;-86
2022/10/26 04:19:35;;;;;;;6.30;3.00;;;10.60;99.90;;;;;;5032102;28;20026;-85
2022/10/26 04:22:00;;;;;;;9.60;3.35;;;10.60;99.90;;;;;;5031727;28;20101;-86
2022/10/26 04:24:26;;;;;;;12.52;3.35;;;10.60;99.90;;;;;;5031547;28;20130;-86
2022/10/26 04:26:52;;;;;;;5.72;2.95;;;10.60;99.90;;;;;;5030464;28;20033;-86
2022/10/26 04:29:17;;;;;;;6.68;3.25;;;10.60;99.90;;;;;;5030969;28;20490;-86
2022/10/26 04:31:43;;;;;;;9.82;4.07;;;10.50;99.90;;;;;;5023952;28;20422;-86
2022/10/26 04:34:08;;;;;;;4.97;2.58;;;10.50;99.90;;;;;;5011773;28;20022;-86
2022/10/26 04:36:34;;;;;;;6.67;2.90;;;10.50;99.90;;;;;;5011743;28;20491;-86
2022/10/26 04:39:00;;;;;;;5.57;3.10;;;10.50;99.90;;;;;;5026930;28;20444;-88
2022/10/26 04:41:25;;;;;;;7.65;3.13;;;10.40;99.90;;;;;;5033062;28;20057;-88
2022/10/26 04:43:51;;;;;;;4.13;2.70;;;10.50;99.90;;;;;;5033248;28;20155;-88
2022/10/26 04:46:16;;;;;;;5.20;3.10;;;10.40;99.90;;;;;;5033060;28;20030;-88
2022/10/26 04:48:42;;;;;;;5.60;3.15;;;10.40;99.90;;;;;;5033183;28;20033;-88
2022/10/26 04:51:07;;;;;;;9.18;3.88;;;10.50;99.90;;;;;;5033144;28;20060;-88
2022/10/26 04:53:33;;;;;;;9.20;3.50;;;10.50;99.90;;;;;;5032589;28;20037;-88
2022/10/26 04:56:00;;;;;;;6.40;2.92;;;10.50;99.90;;;;;;5031632;28;20099;-88
2022/10/26 04:58:26;;;;;;;10.02;3.83;;;10.50;99.90;;;;;;5031492;28;20041;-88
2022/10/26 05:00:52;;;;;;;4.68;3.20;;;10.50;99.90;;;;;;5032217;28;20033;-88
2022/10/26 05:03:18;;;;;;;8.48;3.13;;;10.50;99.90;;;;;;5025032;28;20096;-88
2022/10/26 05:05:43;;;;;;;8.10;3.45;;;10.50;99.90;;;;;;5027575;28;20037;-87
2022/10/26 05:08:09;;;;;;;6.15;3.30;;;10.50;99.90;;;;;;5021679;28;20037;-88
2022/10/26 05:10:34;;;;;;;7.68;3.17;;;10.60;99.90;;;;;;5021219;28;20033;-88
2022/10/26 05:13:03;;;;;;;7.50;2.80;;;10.50;99.90;;;;;;5023483;28;20029;-88
2022/10/26 05:15:29;;;;;;;7.47;3.13;;;10.60;99.90;;;;;;5025769;28;20034;-88
2022/10/26 05:18:00;;;;;;;5.50;3.15;;;10.60;99.90;;;;;;5022702;28;20022;-88
2022/10/26 05:20:30;;;;;;;7.40;3.13;;;10.60;99.90;;;;;;5025468;28;20398;-88
2022/10/26 05:23:09;;;;;;;7.55;3.65;;;10.60;99.90;;;;;;5018578;28;20026;-87
2022/10/26 05:25:36;;;;;;;6.10;3.00;;;10.60;99.90;;;;;;5023910;28;20520;-87
2022/10/26 05:28:04;;;;;;;9.73;3.05;;;10.60;99.90;;;;;;5021374;28;20037;-88
2022/10/26 05:30:30;;;;;;;7.23;3.73;;;10.60;99.90;;;;;;5035497;28;20493;-88
2022/10/26 05:32:58;;;;;;;7.35;3.00;;;10.60;99.90;;;;;;5036862;28;20038;-88
2022/10/26 05:35:24;;;;;;;7.53;3.45;;;10.60;99.90;;;;;;5042530;28;20352;-88
2022/10/26 05:37:50;;;;;;;6.47;3.00;;;10.60;99.90;;;;;;5020152;28;20542;-88
2022/10/26 05:40:16;;;;;;;7.05;3.40;;;10.60;99.90;;;;;;5021865;28;20414;-88
2022/10/26 05:42:42;;;;;;;5.85;3.17;;;10.60;99.90;;;;;;5019970;28;20022;-88
2022/10/26 05:45:08;;;;;;;7.75;3.15;;;10.60;99.90;;;;;;5027100;28;20037;-88
2022/10/26 05:47:41;;;;;;;5.78;3.13;;;10.60;99.90;;;;;;5019397;28;20068;-88
2022/10/26 05:50:08;;;;;;;7.45;3.55;;;10.70;99.90;;;;;;5029696;28;20108;-88
2022/10/26 05:52:39;;;;;;;7.68;3.85;;;10.70;99.90;;;;;;5032519;28;20029;-88
2022/10/26 05:55:06;;;;;;;8.27;3.63;;;10.70;99.90;;;;;;5032306;28;20022;-88
2022/10/26 05:57:35;;;;;;;6.97;3.60;;;10.70;99.90;;;;;;5032356;28;20073;-88
2022/10/26 06:00:05;;;;;;;9.38;3.45;;;10.70;99.90;;;;;;5031802;28;20437;-88
2022/10/26 06:02:48;;;;;;;5.97;3.35;;;10.70;99.90;;;;;;5029646;28;20033;-88
2022/10/26 06:05:21;;;;;;;5.28;3.10;;;10.70;99.90;;;;;;5020639;28;20112;-88
2022/10/26 06:07:47;;;;;;;8.48;3.38;;;10.70;99.90;;;;;;5022687;28;20152;-88
2022/10/26 06:10:13;;;;;;;6.40;3.92;;;10.80;99.90;;;;;;5042401;28;20037;-88
2022/10/26 06:12:39;;;;;;;11.00;3.60;;;10.80;99.90;;;;;;5036969;28;20482;-88
2022/10/26 06:15:05;;;;;;;8.80;3.90;;;10.80;99.90;;;;;;5044418;28;20112;-88
2022/10/26 06:17:39;;;;;;;10.13;4.15;;;10.80;99.90;;;;;;5043962;28;20744;-88
2022/10/26 06:20:13;;;;;;;7.33;4.27;;;10.80;99.90;;;;;;5038391;28;20029;-89
2022/10/26 06:23:10;;;;;;;10.68;3.65;;;10.80;99.90;;;;;;5043390;28;20260;-89
2022/10/26 06:25:58;;;;;;;8.63;3.70;;;10.80;99.90;;;;;;5038931;28;20028;-89
2022/10/26 06:28:34;;;;;;;8.60;4.43;;;10.90;99.90;;;;;;5033547;28;20104;-88
2022/10/26 06:31:00;;;;;;;7.28;5.22;;;10.80;99.90;;;;;;5027425;28;20040;-88
2022/10/26 06:33:26;;;;;;;6.25;3.88;;;10.90;99.90;;;;;;5030520;28;20022;-88
2022/10/26 06:36:10;;;;;;;8.20;3.80;;;10.90;99.90;;;;;;5031398;28;20594;-88
2022/10/26 06:38:38;;;;;;;11.23;4.53;;;11.00;99.90;;;;;;5031726;28;20374;-88
2022/10/26 06:41:04;;;;;;;6.43;3.92;;;11.00;99.90;;;;;;5031079;28;20057;-88
2022/10/26 06:43:32;;;;;;;8.00;3.78;;;11.00;99.90;;;;;;5031741;28;20021;-88
2022/10/26 06:46:04;;;;;;;8.13;4.47;;;11.00;99.90;;;;;;5030834;28;20088;-88
2022/10/26 06:48:38;;;;;;;8.13;4.32;;;11.10;99.90;;;;;;5031738;28;20025;-88
2022/10/26 06:51:04;;;;;;;12.98;8.05;;;11.20;99.90;;;;;;5025848;28;20029;-89
2022/10/26 06:53:36;;;;;;;9.25;5.07;;;11.20;99.90;;;;;;5019660;28;20025;-89
2022/10/26 06:56:01;;;;;;;15.77;4.43;;;11.20;99.90;;;;;;5035794;28;20026;-88
2022/10/26 06:58:32;;;;;;;10.38;3.47;;;11.30;99.90;;;;;;5035561;28;20064;-88
2022/10/26 07:00:58;;;;;;;6.88;3.67;;;11.30;99.90;;;;;;5029998;28;20026;-88
2022/10/26 07:03:24;;;;;;;8.57;3.50;;;11.40;99.90;;;;;;5033315;28;20025;-88
2022/10/26 07:05:49;;;;;;;8.15;3.63;;;11.40;99.90;;;;;;5035517;28;20029;-88
2022/10/26 07:08:15;;;;;;;12.00;4.95;;;11.50;99.90;;;;;;5026232;28;20075;-88
2022/10/26 07:10:41;;;;;;;6.63;3.05;;;11.50;99.90;;;;;;5015297;28;20471;-88
2022/10/26 07:13:08;;;;;;;10.27;4.00;;;11.60;99.90;;;;;;5015432;28;20065;-89
2022/10/26 07:15:35;;;;;;;9.05;3.60;;;11.60;99.90;;;;;;5030168;28;20142;-88
2022/10/26 07:18:04;;;;;;;7.78;3.30;;;11.70;99.90;;;;;;5018460;28;20060;-87
2022/10/26 07:20:31;;;;;;;5.45;3.13;;;11.70;99.90;;;;;;5024849;28;20471;-88
2022/10/26 07:22:57;;;;;;;9.18;3.15;;;11.70;99.90;;;;;;5019271;28;20144;-88
2022/10/26 07:25:24;;;;;;;6.22;2.63;;;11.80;99.90;;;;;;5020808;28;20061;-89
2022/10/26 07:27:50;;;;;;;6.10;2.55;;;11.90;99.90;;;;;;5027234;28;20104;-89
2022/10/26 07:30:16;;;;;;;6.75;2.40;;;11.90;99.90;;;;;;5020791;28;20066;-88
2022/10/26 07:32:42;;;;;;;5.85;3.20;;;12.00;99.90;;;;;;5034445;28;20103;-88
2022/10/26 07:35:07;;;;;;;6.18;2.47;;;12.00;99.90;;;;;;5035156;28;20025;-88
2022/10/26 07:37:33;;;;;;;9.43;2.60;;;12.00;99.90;;;;;;5034930;28;20482;-88
2022/10/26 07:39:59;;;;;;;8.48;2.53;;;12.10;99.90;;;;;;5034114;28;20560;-88
2022/10/26 07:42:24;;;;;;;5.43;2.25;;;12.10;99.90;;;;;;5034564;28;20076;-88
2022/10/26 07:44:50;;;;;;;5.47;2.15;;;12.20;99.90;;;;;;5033703;28;20107;-89
2022/10/26 07:47:16;;;;;;;7.57;2.00;;;12.20;99.90;;;;;;5034431;28;20025;-89
2022/10/26 07:49:41;;;;;;;5.05;1.73;;;12.30;99.90;;;;;;5033935;28;20112;-89
2022/10/26 07:52:08;;;;;;;6.10;2.10;;;12.40;99.90;;;;;;5034003;28;20095;-88
2022/10/26 07:54:33;;;;;;;5.88;1.83;;;12.40;99.90;;;;;;5034279;28;20021;-88
2022/10/26 07:56:59;;;;;;;3.60;1.70;;;12.50;99.90;;;;;;5034411;28;20021;-89
2022/10/26 07:59:25;;;;;;;4.57;1.70;;;12.60;99.90;;;;;;5032787;28;20099;-89
2022/10/26 08:01:51;;;;;;;5.63;1.98;;;12.70;99.90;;;;;;5025000;28;20072;-89
2022/10/26 08:04:17;;;;;;;3.47;1.70;;;12.70;99.90;;;;;;5020435;28;20490;-88
2022/10/26 08:06:42;;;;;;;4.90;2.08;;;12.80;99.90;;;;;;5026123;28;20104;-88
2022/10/26 08:09:08;;;;;;;5.38;1.70;;;12.90;99.90;;;;;;5022755;28;20018;-88
2022/10/26 08:11:35;;;;;;;4.15;1.63;;;13.00;99.90;;;;;;5026216;28;20017;-88
2022/10/26 08:14:02;;;;;;;2.50;1.40;;;13.10;99.90;;;;;;5033629;28;20025;-88
2022/10/26 08:16:28;;;;;;;2.42;1.58;;;13.20;99.90;;;;;;5033972;28;20083;-88
2022/10/26 08:18:53;;;;;;;2.75;1.35;;;13.30;99.90;;;;;;5033442;28;20470;-89
2022/10/26 08:21:19;;;;;;;4.38;1.52;;;13.40;99.90;;;;;;5033099;28;20441;-88
2022/10/26 08:23:44;;;;;;;5.75;1.30;;;13.50;99.90;;;;;;5031979;28;20022;-88
2022/10/26 08:26:10;;;;;;;3.35;1.20;;;13.70;99.90;;;;;;5023199;28;20040;-89
2022/10/26 08:28:36;;;;;;;5.57;1.52;;;13.80;99.90;;;;;;5029949;28;20025;-88
2022/10/26 08:31:03;;;;;;;6.03;1.42;;;13.90;99.90;;;;;;5031580;28;20025;-88
2022/10/26 08:33:29;;;;;;;3.80;1.77;;;14.10;99.90;;;;;;5033678;28;20024;-89
2022/10/26 08:36:00;;;;;;;3.00;1.17;;;14.20;99.90;;;;;;5020610;28;20053;-89
2022/10/26 08:38:26;;;;;;;4.03;2.00;;;14.40;99.90;;;;;;5017263;28;20406;-89
2022/10/26 08:40:52;;;;;;;9.15;3.50;;;14.50;99.90;;;;;;5018087;28;20041;-89
2022/10/26 08:43:28;;;;;;;4.85;2.17;;;14.70;99.90;;;;;;5017721;28;20027;-89
2022/10/26 08:46:04;;;;;;;4.68;1.95;;;14.70;99.90;;;;;;5027119;28;20022;-89
2022/10/26 08:48:36;;;;;;;4.93;1.45;;;14.80;99.90;;;;;;5029931;28;20095;-89
2022/10/26 08:51:07;;;;;;;5.03;1.35;;;14.90;99.90;;;;;;5016319;28;20525;-88
2022/10/26 08:53:33;;;;;;;2.92;1.42;;;15.10;99.90;;;;;;5017243;28;20056;-89
2022/10/26 08:56:23;;;;;;;3.25;1.35;;;15.30;99.90;;;;;;5023813;28;20490;-88
2022/10/26 08:59:00;;;;;;;4.00;1.52;;;15.50;99.90;;;;;;5024844;28;20018;-89
2022/10/26 09:01:25;;;;;;;3.55;1.45;;;15.70;99.90;;;;;;5033292;28;20040;-89
2022/10/26 09:03:51;;;;;;;3.05;1.33;;;15.90;99.90;;;;;;5033650;28;20029;-89
2022/10/26 09:06:42;;;;;;;5.03;1.30;;;16.10;99.90;;;;;;5031358;28;20034;-89
2022/10/26 09:09:14;;;;;;;2.08;1.10;;;16.30;99.90;;;;;;5015495;28;20037;-89
2022/10/26 09:11:51;;;;;;;4.97;1.30;;;16.50;99.90;;;;;;5014540;28;20378;-89
2022/10/26 09:14:27;;;;;;;3.35;1.33;;;16.70;99.90;;;;;;5013252;28;20033;-89
2022/10/26 09:17:19;;;;;;;7.55;1.80;;;16.80;99.90;;;;;;5012987;28;20099;-89
2022/10/26 09:20:03;;;;;;;3.78;1.42;;;17.00;99.90;;;;;;5029407;28;20065;-89
2022/10/26 09:22:53;;;;;;;4.55;1.63;;;17.20;99.90;;;;;;5033310;28;20060;-89
2022/10/26 09:25:21;;;;;;;3.63;1.60;;;17.40;99.90;;;;;;5033066;28;20036;-89
2022/10/26 09:27:51;;;;;;;3.67;1.67;;;17.70;99.90;;;;;;5032979;28;20139;-89
2022/10/26 09:30:19;;;;;;;5.90;1.30;;;17.90;99.90;;;;;;5029081;28;20026;-89
2022/10/26 09:32:55;;;;;;;5.18;1.33;;;18.10;99.90;;;;;;5030038;28;20462;-89
2022/10/26 09:35:48;;;;;;;5.03;1.20;;;18.20;99.90;;;;;;5032966;28;20036;-89
2022/10/26 09:38:59;;;;;;;3.05;1.30;;;18.30;99.90;;;;;;5032722;28;20018;-90
2022/10/26 09:41:35;;;;;;;3.00;1.30;;;18.50;99.90;;;;;;5023624;28;20136;-89
2022/10/26 09:44:04;;;;;;;4.18;1.20;;;18.60;99.90;;;;;;5032809;28;20033;-89
2022/10/26 09:46:47;;;;;;;7.32;1.83;;;18.70;99.90;;;;;;5033213;28;20466;-90
2022/10/26 09:49:16;;;;;;;5.07;1.40;;;18.90;99.90;;;;;;5032919;28;20032;-89
2022/10/26 09:51:43;;;;;;;3.83;1.38;;;19.20;99.90;;;;;;5032925;28;20059;-89
2022/10/26 09:54:17;;;;;;;8.32;2.05;;;19.20;99.90;;;;;;5032737;28;20052;-89
2022/10/26 09:56:50;;;;;;;5.68;1.48;;;19.20;99.90;;;;;;5032993;28;20029;-88
2022/10/26 09:59:20;;;;;;;5.53;1.30;;;19.20;99.90;;;;;;5027314;28;20029;-89
2022/10/26 10:01:45;;;;;;;4.05;1.27;;;19.10;99.90;;;;;;5029448;28;20076;-89
2022/10/26 10:04:21;;;;;;;5.78;2.00;;;19.10;99.90;;;;;;5032562;28;20515;-89
2022/10/26 10:06:52;;;;;;;3.75;1.63;;;19.10;99.90;;;;;;5020066;28;20017;-89
2022/10/26 10:09:22;;;;;;;3.00;1.30;;;19.00;99.90;;;;;;5032312;28;20029;-89
2022/10/26 10:12:01;;;;;;;3.83;1.60;;;18.90;99.90;;;;;;5032535;28;20030;-89
2022/10/26 10:14:33;;;;;;;6.03;1.85;;;18.90;99.90;;;;;;5032704;28;20071;-89
2022/10/26 10:17:01;;;;;;;4.15;1.33;;;18.90;99.90;;;;;;5031971;28;20030;-89
2022/10/26 10:19:30;;;;;;;5.85;1.38;;;18.90;99.90;;;;;;5027383;28;20033;-89
2022/10/26 10:22:06;;;;;;;8.50;1.40;;;18.90;99.90;;;;;;5032177;28;20022;-90
2022/10/26 10:24:33;;;;;;;5.28;1.50;;;18.90;99.90;;;;;;5031805;28;20022;-89
2022/10/26 10:26:59;;;;;;;4.47;1.50;;;18.90;99.90;;;;;;5032677;28;20352;-90
2022/10/26 10:29:30;;;;;;;6.13;1.48;;;18.90;99.90;;;;;;5033701;28;20180;-89
2022/10/26 10:31:58;;;;;;;6.35;1.48;;;18.90;99.90;;;;;;5035834;28;20029;-90
2022/10/26 10:34:24;;;;;;;5.00;1.88;;;18.90;99.90;;;;;;5035922;28;20040;-90
2022/10/26 10:36:50;;;;;;;3.53;1.40;;;18.90;99.90;;;;;;5035599;28;20025;-90
2022/10/26 10:39:37;;;;;;;7.10;1.92;;;19.00;99.90;;;;;;5034436;28;20374;-90
2022/10/26 10:42:06;;;;;;;4.15;1.58;;;19.00;99.90;;;;;;5016173;28;20046;-90
2022/10/26 10:44:32;;;;;;;4.13;1.40;;;19.00;99.90;;;;;;5031341;28;20021;-90
2022/10/26 10:47:02;;;;;;;5.75;1.60;;;19.00;99.90;;;;;;5036292;28;20458;-90
2022/10/26 10:49:29;;;;;;;8.45;2.20;;;19.00;99.90;;;;;;5033273;28;20332;-90
2022/10/26 10:51:55;;;;;;;7.95;2.15;;;19.00;99.90;;;;;;5035324;28;20037;-90
2022/10/26 10:54:34;;;;;;;7.90;1.70;;;19.00;99.90;;;;;;5036078;28;20032;-90
2022/10/26 10:57:04;;;;;;;4.45;1.60;;;19.00;99.90;;;;;;5025973;28;20025;-90
2022/10/26 10:59:35;;;;;;;4.30;1.63;;;19.00;99.90;;;;;;5026627;28;20029;-90
2022/10/26 11:02:34;;;;;;;5.50;1.80;;;18.90;99.90;;;;;;5015605;28;20026;-90
2022/10/26 11:05:30;;;;;;;4.28;1.75;;;18.90;99.90;;;;;;5032941;28;20045;-81
2022/10/26 11:08:08;;;;;;;9.73;2.10;;;18.80;99.90;;;;;;5035812;28;20030;-88
2022/10/26 11:10:39;;;;;;;7.18;1.60;;;18.80;99.90;;;;;;5034785;28;20035;-89
2022/10/26 11:13:35;;;;;;;5.75;1.90;;;18.80;99.90;;;;;;5035193;28;20775;-81
2022/10/26 11:16:05;;;;;;;7.07;1.63;;;18.90;99.90;;;;;;5035858;28;20025;-81
2022/10/26 11:18:40;;;;;;;5.35;1.85;;;18.90;99.90;;;;;;5035832;28;20374;-81
2022/10/26 11:21:17;;;;;;;5.72;2.35;;;18.90;99.90;;;;;;5036157;28;20048;-81
2022/10/26 11:23:53;;;;;;;4.80;1.75;;;18.90;99.90;;;;;;5035568;28;20026;-82
2022/10/26 11:26:35;;;;;;;10.55;2.00;;;19.00;99.90;;;;;;5035504;28;20026;-81
2022/10/26 11:29:24;;;;;;;7.70;2.03;;;19.00;99.90;;;;;;5035786;28;20029;-82
2022/10/26 11:32:15;;;;;;;7.00;1.83;;;19.00;99.90;;;;;;5035765;28;20104;-81
2022/10/26 11:34:54;;;;;;;5.68;1.80;;;19.10;99.90;;;;;;5035361;28;20120;-82
2022/10/26 11:37:27;;;;;;;6.63;1.52;;;19.00;99.90;;;;;;5035759;28;20470;-81
2022/10/26 11:40:18;;;;;;;5.88;2.35;;;19.10;99.90;;;;;;5035237;28;20094;-82
2022/10/26 11:43:11;;;;;;;9.30;2.35;;;19.00;99.90;;;;;;5035355;28;20022;-81
2022/10/26 11:45:41;;;;;;;8.32;2.33;;;19.00;99.90;;;;;;5035738;28;20029;-81
2022/10/26 11:48:23;;;;;;;10.65;2.72;;;18.90;99.90;;;;;;5035115;28;20021;-82
2022/10/26 11:50:52;;;;;;;9.52;2.33;;;18.70;99.90;;;;;;5034927;28;20029;-81
2022/10/26 11:53:25;;;;;;;8.77;2.42;;;18.70;99.90;;;;;;5035105;28;20071;-82
2022/10/26 11:55:55;;;;;;;11.27;2.88;;;18.60;99.90;;;;;;5035151;28;20030;-82
2022/10/26 11:58:26;;;;;;;8.60;2.72;;;18.50;99.90;;;;;;5034967;28;20075;-82
2022/10/26 12:01:00;;;;;;;6.00;2.30;;;18.40;99.90;;;;;;5035051;28;20021;-82
2022/10/26 12:03:42;;;;;;;11.43;2.40;;;18.40;99.90;;;;;;5034873;28;20029;-81
2022/10/26 12:06:08;;;;;;;6.22;2.28;;;18.40;99.90;;;;;;5033552;28;20147;-82
2022/10/26 12:08:40;;;;;;;9.18;2.55;;;18.40;99.90;;;;;;5034990;28;20210;-82
2022/10/26 12:11:32;;;;;;;11.77;2.53;;;18.50;99.90;;;;;;5035145;28;20029;-82
2022/10/26 12:14:14;;;;;;;8.13;2.58;;;18.50;99.90;;;;;;5034978;28;20055;-81
2022/10/26 12:16:40;;;;;;;9.30;2.28;;;18.40;99.90;;;;;;5034904;28;20040;-82
2022/10/26 12:19:13;;;;;;;10.45;2.70;;;18.40;99.90;;;;;;5034649;28;20459;-81
2022/10/26 12:21:41;;;;;;;7.97;2.35;;;18.40;99.90;;;;;;5035090;28;20447;-81
2022/10/26 12:24:22;;;;;;;5.88;2.30;;;18.40;99.90;;;;;;5034453;28;20022;-82
2022/10/26 12:27:05;;;;;;;11.70;2.60;;;18.30;99.90;;;;;;5034443;28;20018;-82
2022/10/26 12:29:52;;;;;;;9.55;2.30;;;18.40;99.90;;;;;;5034247;28;20072;-82
2022/10/26 12:32:27;;;;;;;11.93;2.45;;;18.30;99.90;;;;;;5033866;28;20030;-81
2022/10/26 12:34:53;;;;;;;9.30;2.53;;;18.40;99.90;;;;;;5034126;28;20060;-81
2022/10/26 12:37:28;;;;;;;10.75;2.38;;;18.60;99.90;;;;;;5034484;28;20026;-82
2022/10/26 12:39:53;;;;;;;7.75;2.15;;;18.80;99.90;;;;;;5033819;28;20124;-82
2022/10/26 12:42:22;;;;;;;10.23;2.47;;;19.00;99.90;;;;;;5033182;28;20061;-82
2022/10/26 12:44:48;;;;;;;7.15;2.00;;;19.30;99.90;;;;;;5033330;28;20064;-82
2022/10/26 12:47:29;;;;;;;10.82;2.33;;;19.50;99.90;;;;;;5033434;28;20360;-82
2022/10/26 12:50:22;;;;;;;9.43;2.00;;;19.70;99.90;;;;;;5033576;28;20128;-93
2022/10/26 12:52:57;;;;;;;7.53;2.55;;;19.80;99.90;;;;;;5011948;28;20026;-92
2022/10/26 12:55:45;;;;;;;7.82;2.25;;;19.80;99.90;;;;;;5012283;28;20042;-92
2022/10/26 12:58:38;;;;;;;6.90;1.90;;;19.90;99.90;;;;;;5012312;28;20028;-92
2022/10/26 13:01:23;;;;;;;9.30;2.10;;;19.90;99.90;;;;;;5013606;28;20048;-92
2022/10/26 13:04:12;;;;;;;6.22;2.03;;;19.90;99.90;;;;;;5013661;28;20018;-91
2022/10/26 13:07:06;;;;;;;9.10;2.70;;;19.80;99.90;;;;;;5013582;28;20034;-92